Roosevelt, Texas
Current Conditions -  °F | °C
As of 3:51 AM on Sunday 25 Jan 2015 (Local Time) from KJCT Reporting Station
Clear Clear  
Wind Chill: 33°   Ceiling: Unl
Heat Index: 33°   Visibility: 10mi
Dew Point: 31°   Wind: 3mph
Humidity: 92%   Direction: 260°W
Pressure: 30.07"   Gusts: NA
Location:  30.49°N, 100.05°W
Report Text: KJCT 250951Z AUTO 26003KT 10SM CLR 01/M01 A3007 RMK AO2 SLP168 T00061006
Loading
Personal Weather Stations






























Interactive Weather Map New forecast layout! Learn more

10-Day Weather Forecast

Advertisements
Track Severe Weather on mobile